createdAt,value
2022-12-16T00:01:12.941Z,-8.43
2022-12-16T00:03:40.871Z,-8.40
2022-12-16T00:06:09.936Z,-8.42
2022-12-16T00:08:38.023Z,-8.61
2022-12-16T00:11:05.655Z,-8.74
2022-12-16T00:13:33.502Z,-8.60
2022-12-16T00:16:05.069Z,-8.60
2022-12-16T00:18:32.232Z,-8.55
2022-12-16T00:20:59.397Z,-8.60
2022-12-16T00:23:27.036Z,-8.61
2022-12-16T00:25:54.321Z,-8.55
2022-12-16T00:28:27.338Z,-8.55
2022-12-16T00:30:57.025Z,-8.59
2022-12-16T00:33:25.768Z,-8.59
2022-12-16T00:35:53.529Z,-8.61
2022-12-16T00:38:22.111Z,-8.62
2022-12-16T00:40:49.246Z,-8.59
2022-12-16T00:43:16.363Z,-8.68
2022-12-16T00:45:43.522Z,-8.60
2022-12-16T00:48:10.719Z,-8.57
2022-12-16T00:50:37.807Z,-8.60
2022-12-16T00:53:05.443Z,-8.80
2022-12-16T00:55:32.641Z,-8.66
2022-12-16T00:57:59.804Z,-8.84
2022-12-16T01:00:27.045Z,-9.09
2022-12-16T01:02:54.306Z,-9.16
2022-12-16T01:05:26.468Z,-9.19
2022-12-16T01:07:54.452Z,-9.13
2022-12-16T01:10:21.958Z,-9.12
2022-12-16T01:12:49.588Z,-9.11
2022-12-16T01:15:18.124Z,-9.11
2022-12-16T01:17:45.256Z,-9.07
2022-12-16T01:20:13.379Z,-9.07
2022-12-16T01:22:40.681Z,-9.05
2022-12-16T01:25:08.508Z,-9.11
2022-12-16T01:27:35.693Z,-9.11
2022-12-16T01:30:03.206Z,-9.16
2022-12-16T01:32:30.392Z,-9.07
2022-12-16T01:34:58.769Z,-9.01
2022-12-16T01:37:26.227Z,-8.99
2022-12-16T01:39:53.723Z,-9.01
2022-12-16T01:42:21.791Z,-9.04
2022-12-16T01:44:49.798Z,-9.07
2022-12-16T01:47:20.860Z,-9.08
2022-12-16T01:49:50.561Z,-9.07
2022-12-16T01:52:19.108Z,-9.08
2022-12-16T01:55:09.576Z,-9.09
2022-12-16T01:57:38.068Z,-9.06
2022-12-16T02:00:06.526Z,-9.21
2022-12-16T02:02:33.898Z,-9.12
2022-12-16T02:05:19.878Z,-9.12
2022-12-16T02:07:56.274Z,-9.11
2022-12-16T02:10:25.649Z,-9.12
2022-12-16T02:13:05.311Z,-9.11
2022-12-16T02:15:35.416Z,-9.18
2022-12-16T02:18:06.031Z,-9.19
2022-12-16T02:20:33.427Z,-9.18
2022-12-16T02:23:09.681Z,-9.18
2022-12-16T02:25:55.672Z,-9.18
2022-12-16T02:28:32.241Z,-9.17
2022-12-16T02:31:19.788Z,-9.25
2022-12-16T02:33:58.994Z,-9.31
2022-12-16T02:36:32.275Z,-9.31
2022-12-16T02:39:00.328Z,-9.30
2022-12-16T02:41:33.179Z,-9.31
2022-12-16T02:44:04.841Z,-9.31
2022-12-16T02:46:35.427Z,-9.36
2022-12-16T02:49:06.496Z,-9.40
2022-12-16T02:51:33.746Z,-9.35
2022-12-16T02:54:00.892Z,-9.36
2022-12-16T02:56:51.435Z,-9.32
2022-12-16T02:59:27.343Z,-9.34
2022-12-16T03:02:05.398Z,-9.32
2022-12-16T03:04:40.590Z,-9.34
2022-12-16T03:07:08.249Z,-9.30
2022-12-16T03:09:35.554Z,-9.25
2022-12-16T03:12:03.360Z,-9.25
2022-12-16T03:14:31.831Z,-9.26
2022-12-16T03:16:59.165Z,-9.28
2022-12-16T03:19:26.463Z,-9.32
2022-12-16T03:22:00.885Z,-9.36
2022-12-16T03:24:28.315Z,-9.40
2022-12-16T03:26:58.562Z,-9.44
2022-12-16T03:29:32.839Z,-9.42
2022-12-16T03:32:09.388Z,-9.40
2022-12-16T03:34:39.565Z,-9.44
2022-12-16T03:37:08.302Z,-9.53
2022-12-16T03:39:36.430Z,-9.57
2022-12-16T03:42:03.698Z,-9.49
2022-12-16T03:44:30.910Z,-9.48
2022-12-16T03:46:58.051Z,-9.56
2022-12-16T03:49:25.155Z,-9.58
2022-12-16T03:51:52.611Z,-9.55
2022-12-16T03:54:19.729Z,-9.59
2022-12-16T03:56:47.635Z,-9.61
2022-12-16T03:59:14.793Z,-9.71
2022-12-16T04:01:41.986Z,-9.66
2022-12-16T04:04:09.176Z,-9.71
2022-12-16T04:06:36.276Z,-9.69
2022-12-16T04:09:03.406Z,-9.80
2022-12-16T04:11:49.324Z,-9.75
2022-12-16T04:14:34.890Z,-9.71
2022-12-16T04:17:20.594Z,-9.74
2022-12-16T04:20:06.291Z,-9.72
2022-12-16T04:22:53.202Z,-9.74
2022-12-16T04:25:27.731Z,-9.72
2022-12-16T04:27:54.847Z,-9.71
2022-12-16T04:30:22.240Z,-9.72
2022-12-16T04:33:09.747Z,-9.73
2022-12-16T04:35:55.636Z,-9.70
2022-12-16T04:38:41.573Z,-9.71
2022-12-16T04:41:27.658Z,-9.70
2022-12-16T04:44:13.875Z,-9.69
2022-12-16T04:47:00.200Z,-9.68
2022-12-16T04:49:46.007Z,-9.74
2022-12-16T04:52:31.965Z,-9.65
2022-12-16T04:55:17.973Z,-9.56
2022-12-16T04:58:07.652Z,-9.61
2022-12-16T05:00:53.496Z,-9.70
2022-12-16T05:03:41.785Z,-9.74
2022-12-16T05:06:27.752Z,-9.74
2022-12-16T05:09:13.576Z,-9.78
2022-12-16T05:11:59.472Z,-9.78
2022-12-16T05:14:45.369Z,-9.77
2022-12-16T05:17:31.371Z,-9.77
2022-12-16T05:20:17.284Z,-9.76
2022-12-16T05:23:03.061Z,-9.79
2022-12-16T05:25:49.115Z,-9.90
2022-12-16T05:28:35.039Z,-9.93
2022-12-16T05:31:20.738Z,-9.96
2022-12-16T05:34:06.459Z,-9.86
2022-12-16T05:36:52.391Z,-9.83
2022-12-16T05:39:38.075Z,-9.81
2022-12-16T05:42:23.680Z,-9.88
2022-12-16T05:45:13.719Z,-9.91
2022-12-16T05:47:59.610Z,-9.87
2022-12-16T05:50:45.543Z,-9.88
2022-12-16T05:53:31.974Z,-9.80
2022-12-16T05:56:22.693Z,-9.79
2022-12-16T05:59:08.883Z,-9.89
2022-12-16T06:01:55.000Z,-9.91
2022-12-16T06:04:40.987Z,-10.00
2022-12-16T06:07:27.083Z,-9.89
2022-12-16T06:10:12.987Z,-9.86
2022-12-16T06:12:58.940Z,-9.85
2022-12-16T06:15:44.970Z,-9.80
2022-12-16T06:18:30.827Z,-9.89
2022-12-16T06:21:16.805Z,-9.85
2022-12-16T06:24:02.931Z,-9.83
2022-12-16T06:26:49.007Z,-9.90
2022-12-16T06:29:34.946Z,-9.82
2022-12-16T06:32:20.780Z,-9.75
2022-12-16T06:35:06.649Z,-9.83
2022-12-16T06:40:55.778Z,-9.80
2022-12-16T06:43:41.272Z,-9.77
2022-12-16T06:46:26.955Z,-9.83
2022-12-16T06:49:12.697Z,-9.85
2022-12-16T06:51:58.424Z,-9.79
2022-12-16T06:54:44.262Z,-9.84
2022-12-16T06:57:29.961Z,-9.89
2022-12-16T07:00:15.960Z,-9.82
2022-12-16T07:03:01.626Z,-9.82
2022-12-16T07:05:47.505Z,-9.86
2022-12-16T07:08:33.447Z,-9.85
2022-12-16T07:11:22.461Z,-9.81
2022-12-16T07:14:08.465Z,-9.92
2022-12-16T07:16:54.568Z,-9.87
2022-12-16T07:19:40.455Z,-9.83
2022-12-16T07:22:26.894Z,-9.77
2022-12-16T07:25:12.773Z,-9.75
2022-12-16T07:27:58.605Z,-9.75
2022-12-16T07:30:44.338Z,-9.77
2022-12-16T07:33:30.107Z,-9.75
2022-12-16T07:36:16.528Z,-9.67
2022-12-16T07:39:03.899Z,-9.64
2022-12-16T07:41:49.388Z,-9.63
2022-12-16T07:44:35.107Z,-9.62
2022-12-16T07:47:20.810Z,-9.59
2022-12-16T07:50:06.771Z,-9.58
2022-12-16T07:52:52.243Z,-9.62
2022-12-16T07:55:41.391Z,-9.57
2022-12-16T07:58:27.881Z,-9.55
2022-12-16T08:01:13.940Z,-9.54
2022-12-16T08:03:59.907Z,-9.59
2022-12-16T08:06:45.858Z,-9.52
2022-12-16T08:09:31.622Z,-9.51
2022-12-16T08:12:17.454Z,-9.45
2022-12-16T08:15:10.838Z,-9.36
2022-12-16T08:17:56.696Z,-9.22
2022-12-16T08:20:42.473Z,-9.11
2022-12-16T08:23:28.133Z,-9.00
2022-12-16T08:26:13.729Z,-8.87
2022-12-16T08:29:19.890Z,-8.81
2022-12-16T08:32:05.210Z,-8.73
2022-12-16T08:34:51.027Z,-8.61
2022-12-16T08:37:36.733Z,-8.58
2022-12-16T08:40:35.380Z,-8.58
2022-12-16T08:43:21.967Z,-8.47
2022-12-16T08:46:08.586Z,-8.37
2022-12-16T08:48:54.910Z,-8.23
2022-12-16T08:51:41.882Z,-8.17
2022-12-16T08:54:27.730Z,-8.08
2022-12-16T08:57:13.834Z,-8.02
2022-12-16T08:59:59.395Z,-7.78
2022-12-16T09:02:45.170Z,-7.61
2022-12-16T09:05:37.398Z,-7.39
2022-12-16T09:08:23.333Z,-7.03
2022-12-16T09:11:09.102Z,-6.69
2022-12-16T09:13:55.122Z,-6.30
2022-12-16T09:16:40.697Z,-5.98
2022-12-16T09:19:26.709Z,-5.71
2022-12-16T09:22:12.215Z,-5.45
2022-12-16T09:24:57.747Z,-5.26
2022-12-16T09:27:43.274Z,-5.12
2022-12-16T09:30:29.267Z,-5.00
2022-12-16T09:33:15.197Z,-4.87
2022-12-16T09:36:00.932Z,-4.75
2022-12-16T09:38:46.653Z,-4.70
2022-12-16T09:41:52.630Z,-4.59
2022-12-16T09:44:44.367Z,-4.43
2022-12-16T09:47:33.525Z,-4.29
2022-12-16T09:50:19.449Z,-4.20
2022-12-16T09:53:06.608Z,-4.14
2022-12-16T09:55:57.170Z,-4.13
2022-12-16T09:58:44.033Z,-4.11
2022-12-16T10:01:30.269Z,-3.97
2022-12-16T10:04:16.335Z,-3.92
2022-12-16T10:07:05.854Z,-3.80
2022-12-16T10:10:10.780Z,-3.72
2022-12-16T10:13:15.359Z,-3.62
2022-12-16T10:16:07.779Z,-3.63
2022-12-16T10:19:04.849Z,-3.81
2022-12-16T10:22:20.510Z,-3.63
2022-12-16T10:25:12.910Z,-3.63
2022-12-16T10:28:05.567Z,-3.59
2022-12-16T10:30:51.975Z,-3.58
2022-12-16T10:33:38.517Z,-3.50
2022-12-16T10:36:25.060Z,-3.51
2022-12-16T10:39:20.625Z,-3.53
2022-12-16T10:42:08.255Z,-3.51
2022-12-16T10:44:54.607Z,-3.43
2022-12-16T10:47:41.681Z,-3.48
2022-12-16T10:50:31.286Z,-3.37
2022-12-16T10:53:37.581Z,-3.33
2022-12-16T10:56:26.841Z,-3.29
2022-12-16T10:59:13.494Z,-3.18
2022-12-16T11:01:59.379Z,-3.07
2022-12-16T11:04:49.358Z,-2.98
2022-12-16T11:07:56.425Z,-2.93
2022-12-16T11:10:43.168Z,-2.91
2022-12-16T11:13:31.140Z,-2.82
2022-12-16T11:16:25.035Z,-2.74
2022-12-16T11:19:11.202Z,-2.72
2022-12-16T11:21:57.058Z,-2.63
2022-12-16T11:24:42.659Z,-2.82
2022-12-16T11:27:35.451Z,-2.69
2022-12-16T11:30:22.465Z,-2.63
2022-12-16T11:33:12.155Z,-2.64
2022-12-16T11:35:58.995Z,-2.58
2022-12-16T11:38:52.991Z,-2.55
2022-12-16T11:41:55.261Z,-2.63
2022-12-16T11:44:44.766Z,-2.63
2022-12-16T11:47:57.094Z,-2.61
2022-12-16T11:50:44.376Z,-2.71
2022-12-16T11:53:39.350Z,-2.54
2022-12-16T11:56:26.825Z,-2.56
2022-12-16T11:59:12.850Z,-2.66
2022-12-16T12:02:03.874Z,-2.59
2022-12-16T12:04:49.963Z,-2.54
2022-12-16T12:07:44.868Z,-2.62
2022-12-16T12:10:48.484Z,-2.64
2022-12-16T12:13:34.625Z,-2.46
2022-12-16T12:16:32.102Z,-2.45
2022-12-16T12:19:18.052Z,-2.37
2022-12-16T12:22:15.882Z,-2.30
2022-12-16T12:25:21.647Z,-2.46
2022-12-16T12:28:14.002Z,-2.47
2022-12-16T12:31:21.468Z,-2.55
2022-12-16T12:34:07.507Z,-2.46
2022-12-16T12:36:55.696Z,-2.45
2022-12-16T12:39:50.783Z,-2.23
2022-12-16T12:42:36.646Z,-2.21
2022-12-16T12:45:28.332Z,-2.21
2022-12-16T12:48:17.329Z,-2.26
2022-12-16T12:51:18.309Z,-2.15
2022-12-16T12:54:13.828Z,-2.35
2022-12-16T12:57:09.626Z,-2.27
2022-12-16T13:00:06.388Z,-2.25
2022-12-16T13:02:58.039Z,-2.22
2022-12-16T13:05:44.078Z,-2.36
2022-12-16T13:08:49.100Z,-2.22
2022-12-16T13:11:35.644Z,-2.16
2022-12-16T13:14:21.547Z,-2.11
2022-12-16T13:17:13.493Z,-2.21
2022-12-16T13:20:07.022Z,-2.19
2022-12-16T13:22:53.202Z,-2.06
2022-12-16T13:25:58.434Z,-2.01
2022-12-16T13:28:48.861Z,-2.03
2022-12-16T13:31:34.733Z,-2.15
2022-12-16T13:34:22.166Z,-2.20
2022-12-16T13:37:19.057Z,-2.08
2022-12-16T13:40:35.154Z,-2.06
2022-12-16T13:43:23.876Z,-2.04
2022-12-16T13:46:15.935Z,-2.14
2022-12-16T13:49:01.875Z,-2.16
2022-12-16T13:51:56.923Z,-2.07
2022-12-16T13:54:46.006Z,-2.20
2022-12-16T13:57:34.678Z,-2.21
2022-12-16T14:00:20.502Z,-2.25
2022-12-16T14:03:06.395Z,-2.27
2022-12-16T14:05:53.825Z,-2.38
2022-12-16T14:08:41.698Z,-2.29
2022-12-16T14:11:46.745Z,-2.39
2022-12-16T14:14:43.016Z,-2.39
2022-12-16T14:17:30.890Z,-2.29
2022-12-16T14:20:22.003Z,-2.31
2022-12-16T14:23:32.428Z,-2.32
2022-12-16T14:26:20.991Z,-2.25
2022-12-16T14:29:06.814Z,-2.39
2022-12-16T14:31:56.404Z,-2.36
2022-12-16T14:34:43.675Z,-2.50
2022-12-16T14:37:38.846Z,-2.37
2022-12-16T14:41:03.368Z,-2.40
2022-12-16T14:43:49.116Z,-2.36
2022-12-16T14:46:46.339Z,-2.58
2022-12-16T14:49:40.425Z,-2.64
2022-12-16T14:52:46.046Z,-2.47
2022-12-16T14:55:35.940Z,-2.59
2022-12-16T14:58:22.907Z,-2.88
2022-12-16T15:01:15.339Z,-2.87
2022-12-16T15:04:03.536Z,-2.97
2022-12-16T15:06:53.963Z,-2.92
2022-12-16T15:10:09.387Z,-2.98
2022-12-16T15:12:56.059Z,-2.96
2022-12-16T15:15:51.677Z,-3.03
2022-12-16T15:18:41.748Z,-2.98
2022-12-16T15:21:27.643Z,-3.09
2022-12-16T15:24:13.396Z,-3.07
2022-12-16T15:27:02.152Z,-2.87
2022-12-16T15:29:51.122Z,-2.98
2022-12-16T15:32:48.041Z,-2.88
2022-12-16T15:35:44.012Z,-2.86
2022-12-16T15:38:59.424Z,-2.75
2022-12-16T15:41:46.472Z,-2.61
2022-12-16T15:44:33.047Z,-2.52
2022-12-16T15:47:18.802Z,-2.46
2022-12-16T15:50:04.770Z,-2.46
2022-12-16T15:53:03.278Z,-2.40
2022-12-16T15:55:50.120Z,-2.52
2022-12-16T15:58:45.938Z,-2.50
2022-12-16T16:01:32.830Z,-2.74
2022-12-16T16:04:18.801Z,-2.68
2022-12-16T16:07:06.248Z,-2.76
2022-12-16T16:09:53.164Z,-2.78
2022-12-16T16:12:41.500Z,-2.81
2022-12-16T16:15:28.633Z,-2.82
2022-12-16T16:18:15.618Z,-2.98
2022-12-16T16:21:01.283Z,-2.83
2022-12-16T16:23:50.595Z,-2.92
2022-12-16T16:26:37.365Z,-2.94
2022-12-16T16:29:23.427Z,-2.81
2022-12-16T16:32:09.286Z,-2.95
2022-12-16T16:34:54.942Z,-2.98
2022-12-16T16:37:40.433Z,-2.91
2022-12-16T16:40:45.437Z,-2.78
2022-12-16T16:43:31.741Z,-2.85
2022-12-16T16:46:18.118Z,-2.91
2022-12-16T16:49:08.471Z,-2.99
2022-12-16T16:51:54.512Z,-2.96
2022-12-16T16:54:40.138Z,-2.82
2022-12-16T16:57:26.869Z,-2.83
2022-12-16T17:00:13.011Z,-2.84
2022-12-16T17:02:59.003Z,-2.82
2022-12-16T17:05:44.979Z,-2.90
2022-12-16T17:08:30.606Z,-2.82
2022-12-16T17:11:16.155Z,-2.78
2022-12-16T17:14:06.597Z,-2.69
2022-12-16T17:16:52.683Z,-2.67
2022-12-16T17:19:38.287Z,-2.81
2022-12-16T17:22:23.945Z,-2.77
2022-12-16T17:25:09.528Z,-2.83
2022-12-16T17:27:55.270Z,-2.67
2022-12-16T17:30:47.003Z,-2.72
2022-12-16T17:33:36.694Z,-2.79
2022-12-16T17:36:26.059Z,-2.72
2022-12-16T17:39:14.520Z,-2.76
2022-12-16T17:42:00.334Z,-2.82
2022-12-16T17:44:46.065Z,-2.89
2022-12-16T17:47:31.923Z,-3.02
2022-12-16T17:50:20.780Z,-2.96
2022-12-16T17:53:06.708Z,-3.10
2022-12-16T17:55:52.559Z,-3.21
2022-12-16T17:58:39.311Z,-3.01
2022-12-16T18:01:24.982Z,-2.90
2022-12-16T18:04:11.038Z,-3.12
2022-12-16T18:06:56.994Z,-3.19
2022-12-16T18:09:42.616Z,-2.97
2022-12-16T18:12:28.552Z,-3.21
2022-12-16T18:15:14.574Z,-3.17
2022-12-16T18:18:01.963Z,-3.29
2022-12-16T18:20:47.607Z,-3.24
2022-12-16T18:23:33.956Z,-3.03
2022-12-16T18:26:20.581Z,-2.87
2022-12-16T18:29:06.299Z,-2.80
2022-12-16T18:31:52.040Z,-2.71
2022-12-16T18:34:37.754Z,-2.62
2022-12-16T18:37:23.691Z,-2.66
2022-12-16T18:40:09.607Z,-2.67
2022-12-16T18:42:55.633Z,-2.82
2022-12-16T18:45:41.811Z,-2.91
2022-12-16T18:48:27.685Z,-2.85
2022-12-16T18:51:14.164Z,-3.00
2022-12-16T18:53:59.787Z,-2.93
2022-12-16T18:56:45.651Z,-2.91
2022-12-16T18:59:31.291Z,-2.95
2022-12-16T19:02:17.185Z,-2.92
2022-12-16T19:05:02.883Z,-3.02
2022-12-16T19:07:48.438Z,-3.19
2022-12-16T19:10:34.066Z,-3.12
2022-12-16T19:13:19.754Z,-3.00
2022-12-16T19:16:15.037Z,-3.18
2022-12-16T19:19:01.088Z,-3.11
2022-12-16T19:21:52.042Z,-3.06
2022-12-16T19:24:42.249Z,-3.09
2022-12-16T19:27:27.995Z,-2.88
2022-12-16T19:30:13.925Z,-2.82
2022-12-16T19:32:59.824Z,-2.94
2022-12-16T19:35:45.873Z,-2.89
2022-12-16T19:38:32.829Z,-2.83
2022-12-16T19:41:18.394Z,-2.93
2022-12-16T19:44:09.266Z,-2.79
2022-12-16T19:46:56.235Z,-2.70
2022-12-16T19:49:44.484Z,-2.68
2022-12-16T19:52:30.908Z,-2.65
2022-12-16T19:55:17.705Z,-2.79
2022-12-16T19:58:06.966Z,-2.69
2022-12-16T20:00:53.599Z,-2.72
2022-12-16T20:03:39.693Z,-2.68
2022-12-16T20:06:26.358Z,-2.76
2022-12-16T20:09:12.419Z,-2.62
2022-12-16T20:11:58.333Z,-2.89
2022-12-16T20:14:44.168Z,-2.89
2022-12-16T20:17:29.953Z,-2.87
2022-12-16T20:20:15.942Z,-2.79
2022-12-16T20:23:01.776Z,-2.68
2022-12-16T20:25:51.789Z,-2.57
2022-12-16T20:28:37.751Z,-2.44
2022-12-16T20:31:23.504Z,-2.37
2022-12-16T20:34:12.886Z,-2.31
2022-12-16T20:36:58.768Z,-2.50
2022-12-16T20:39:49.473Z,-2.40
2022-12-16T20:42:38.948Z,-2.33
2022-12-16T20:45:24.812Z,-2.43
2022-12-16T20:48:11.746Z,-2.36
2022-12-16T20:50:57.741Z,-2.33
2022-12-16T20:53:43.296Z,-2.29
2022-12-16T20:56:29.344Z,-2.23
2022-12-16T20:59:18.296Z,-2.19
2022-12-16T21:05:12.931Z,-2.21
2022-12-16T21:07:58.542Z,-2.18
2022-12-16T21:10:44.451Z,-2.23
2022-12-16T21:13:34.410Z,-2.23
2022-12-16T21:16:20.716Z,-2.24
2022-12-16T21:19:06.456Z,-2.17
2022-12-16T21:21:52.122Z,-2.13
2022-12-16T21:24:38.070Z,-2.05
2022-12-16T21:27:24.087Z,-2.08
2022-12-16T21:30:09.696Z,-2.06
2022-12-16T21:32:56.648Z,-2.15
2022-12-16T21:35:42.667Z,-2.07
2022-12-16T21:38:28.679Z,-2.11
2022-12-16T21:41:14.994Z,-2.05
2022-12-16T21:44:00.870Z,-2.08
2022-12-16T21:46:46.569Z,-2.08
2022-12-16T21:49:32.627Z,-2.09
2022-12-16T21:52:18.258Z,-2.04
2022-12-16T21:55:03.875Z,-2.02
2022-12-16T21:57:49.312Z,-2.11
2022-12-16T22:00:35.090Z,-2.19
2022-12-16T22:03:20.688Z,-2.19
2022-12-16T22:06:09.547Z,-2.29
2022-12-16T22:08:56.231Z,-2.29
2022-12-16T22:11:42.229Z,-2.27
2022-12-16T22:14:27.900Z,-2.30
2022-12-16T22:17:13.830Z,-2.18
2022-12-16T22:19:59.862Z,-2.11
2022-12-16T22:22:45.715Z,-2.07
2022-12-16T22:25:31.435Z,-2.15
2022-12-16T22:28:16.984Z,-2.17
2022-12-16T22:31:02.733Z,-2.11
2022-12-16T22:33:48.895Z,-2.20
2022-12-16T22:36:35.085Z,-2.42
2022-12-16T22:39:21.044Z,-2.40
2022-12-16T22:42:06.736Z,-2.26
2022-12-16T22:44:52.418Z,-2.35
2022-12-16T22:47:42.171Z,-2.30
2022-12-16T22:50:28.305Z,-2.20
2022-12-16T22:53:16.203Z,-2.07
2022-12-16T22:56:02.504Z,-2.01
2022-12-16T22:58:48.478Z,-2.03
2022-12-16T23:01:34.153Z,-1.97
2022-12-16T23:04:20.242Z,-1.97
2022-12-16T23:07:06.031Z,-2.13
2022-12-16T23:09:53.304Z,-2.35
2022-12-16T23:12:39.154Z,-2.44
2022-12-16T23:15:25.020Z,-2.43
2022-12-16T23:18:10.949Z,-2.26
2022-12-16T23:20:56.897Z,-2.13
2022-12-16T23:23:44.488Z,-2.06
2022-12-16T23:26:30.207Z,-2.04
2022-12-16T23:29:15.879Z,-2.08
2022-12-16T23:32:01.471Z,-1.98
2022-12-16T23:34:47.217Z,-2.08
2022-12-16T23:37:32.998Z,-2.26
2022-12-16T23:40:18.802Z,-2.31
2022-12-16T23:43:05.454Z,-2.22
2022-12-16T23:45:51.499Z,-2.24
2022-12-16T23:48:37.472Z,-2.12
2022-12-16T23:51:23.115Z,-2.04
2022-12-16T23:54:08.666Z,-2.07
2022-12-16T23:56:56.295Z,-2.12
2022-12-16T23:59:42.393Z,-2.16
